Time;durP1;ratioP1;P1;durP2;ratioP2;P2;SDS_P1;SDS_P2;PMS_P1;PMS_P2;Temp;Humidity;BMP_temperature;BMP_pressure;BME280_temperature;BME280_humidity;BME280_pressure;Samples;Min_cycle;Max_cycle;Signal;HPM_P1;HPM_P2
2021/07/15 00:01:22;;;;;;;15.98;14.45;;;;;;;23.25;61.18;93446.94;5090943;28;20032;-58
2021/07/15 00:03:47;;;;;;;16.83;15.07;;;;;;;23.22;61.07;93448.91;5089657;28;20075;-58
2021/07/15 00:06:13;;;;;;;21.30;14.63;;;;;;;23.20;61.63;93440.38;5091140;28;20024;-57
2021/07/15 00:08:38;;;;;;;18.83;15.02;;;;;;;23.20;61.86;93445.28;5090422;28;20487;-58
2021/07/15 00:11:10;;;;;;;16.75;14.95;;;;;;;23.19;61.96;93443.84;5091144;28;20020;-57
2021/07/15 00:13:36;;;;;;;15.95;14.32;;;;;;;23.18;61.92;93445.91;5089891;28;20020;-57
2021/07/15 00:16:04;;;;;;;15.77;14.18;;;;;;;23.22;61.91;93446.09;5091045;28;20023;-57
2021/07/15 00:18:32;;;;;;;14.85;13.55;;;;;;;23.28;62.33;93452.03;5090950;28;20020;-57
2021/07/15 00:20:59;;;;;;;15.00;13.40;;;;;;;23.33;62.21;93452.97;5090759;28;20020;-56
2021/07/15 00:23:25;;;;;;;20.20;14.55;;;;;;;23.35;62.08;93453.06;5090653;28;20066;-58
2021/07/15 00:25:51;;;;;;;15.85;13.88;;;;;;;23.38;62.42;93457.44;5089896;28;20450;-58
2021/07/15 00:28:17;;;;;;;15.70;13.73;;;;;;;23.40;62.31;93462.44;5090612;28;20093;-58
2021/07/15 00:30:43;;;;;;;16.83;14.73;;;;;;;23.39;62.65;93461.69;5090837;28;20051;-57
2021/07/15 00:33:09;;;;;;;15.93;14.25;;;;;;;23.38;63.04;93467.97;5090338;28;20019;-57
2021/07/15 00:35:35;;;;;;;16.40;14.90;;;;;;;23.35;63.04;93472.78;5090356;28;20019;-56
2021/07/15 00:38:01;;;;;;;15.05;13.65;;;;;;;23.28;63.81;93459.75;5089636;28;20027;-57
2021/07/15 00:40:27;;;;;;;19.38;14.57;;;;;;;23.18;64.17;93462.09;5090331;28;20020;-57
2021/07/15 00:42:52;;;;;;;16.70;15.00;;;;;;;23.09;64.07;93457.41;5090061;28;20427;-57
2021/07/15 00:45:18;;;;;;;15.77;14.20;;;;;;;23.04;64.78;93453.69;5090419;28;20024;-57
2021/07/15 00:47:45;;;;;;;15.30;13.93;;;;;;;22.94;65.13;93460.91;5090443;28;20027;-56
2021/07/15 00:50:12;;;;;;;17.88;16.08;;;;;;;22.84;64.84;93440.72;5088840;28;20024;-57
2021/07/15 00:52:38;;;;;;;15.80;14.20;;;;;;;23.03;65.02;93462.78;5089912;28;20050;-56
2021/07/15 00:55:11;;;;;;;16.33;14.63;;;;;;;23.00;65.51;93453.50;5089945;28;20559;-58
2021/07/15 00:57:37;;;;;;;16.25;14.63;;;;;;;23.01;65.11;93445.78;5090204;28;20032;-57
2021/07/15 01:00:06;;;;;;;15.00;13.60;;;;;;;23.03;65.05;93445.88;5088783;28;20078;-56
2021/07/15 01:02:31;;;;;;;15.75;14.25;;;;;;;22.97;65.23;93442.78;5089897;28;20024;-56
2021/07/15 01:04:56;;;;;;;17.45;15.90;;;;;;;22.95;66.20;93442.69;5089626;28;20115;-58
2021/07/15 01:07:22;;;;;;;16.85;15.27;;;;;;;22.94;65.71;93439.13;5089739;28;20031;-56
2021/07/15 03:59:26;;;;;;;20.55;18.85;;;;;;;22.35;68.12;93438.28;5091431;27;20640;-58
2021/07/15 04:02:02;;;;;;;21.08;19.23;;;;;;;22.18;69.00;93436.03;5090589;28;20089;-58
2021/07/15 04:04:29;;;;;;;22.25;20.35;;;;;;;22.07;69.43;93436.84;5106311;28;20024;-57
2021/07/15 04:06:57;;;;;;;24.10;22.20;;;;;;;22.00;69.84;93437.19;5072570;28;20020;-57
2021/07/15 04:09:23;;;;;;;23.17;21.17;;;;;;;21.92;70.34;93439.59;5090568;28;20496;-57
2021/07/15 04:11:50;;;;;;;24.17;22.27;;;;;;;21.93;70.44;93433.34;5106499;28;20016;-56
2021/07/15 04:14:22;;;;;;;27.70;22.40;;;;;;;21.95;70.79;93436.25;5090644;28;20124;-54
2021/07/15 04:17:04;;;;;;;23.92;21.98;;;;;;;22.01;70.52;93433.75;5070934;28;20031;-56
2021/07/15 04:19:30;;;;;;;24.98;22.70;;;;;;;22.05;70.30;93431.13;5070101;28;20032;-58
2021/07/15 04:21:56;;;;;;;30.50;21.38;;;;;;;22.04;70.54;93434.59;5068662;28;20115;-58
2021/07/15 04:24:23;;;;;;;29.80;22.35;;;;;;;22.08;70.65;93432.72;5071879;28;20098;-58
2021/07/15 04:26:50;;;;;;;76.70;25.17;;;;;;;22.13;70.47;93433.66;5072075;28;20020;-57
2021/07/15 04:29:17;;;;;;;22.63;20.33;;;;;;;22.18;69.92;93430.41;5090266;28;20118;-59
2021/07/15 04:32:04;;;;;;;22.58;20.67;;;;;;;22.21;70.40;93428.44;5072085;28;20016;-60
2021/07/15 04:34:31;;;;;;;23.25;21.02;;;;;;;22.30;70.17;93428.22;5090103;28;20024;-57
2021/07/15 04:36:57;;;;;;;21.30;19.40;;;;;;;22.32;70.11;93428.31;5090219;28;20031;-57
2021/07/15 04:39:25;;;;;;;21.20;19.02;;;;;;;22.34;69.85;93428.41;5072018;28;20016;-60
2021/07/15 04:41:51;;;;;;;19.15;17.27;;;;;;;22.36;69.24;93428.50;5089830;28;20027;-59
2021/07/15 04:44:16;;;;;;;20.20;18.25;;;;;;;22.35;69.39;93424.22;5071902;28;20031;-58
2021/07/15 04:46:42;;;;;;;19.90;17.70;;;;;;;22.37;68.87;93427.16;5090092;28;20020;-59
2021/07/15 04:49:08;;;;;;;19.08;17.15;;;;;;;22.36;69.30;93422.16;5089721;28;20032;-58
2021/07/15 04:51:38;;;;;;;20.58;18.58;;;;;;;22.30;69.36;93421.84;5089845;28;20027;-59
2021/07/15 04:54:05;;;;;;;19.90;17.83;;;;;;;22.32;69.73;93417.06;5089781;28;20036;-58
2021/07/15 04:56:31;;;;;;;20.83;18.23;;;;;;;22.32;69.69;93414.25;5089616;28;20027;-59
2021/07/15 04:58:57;;;;;;;21.52;18.58;;;;;;;22.34;69.41;93419.97;5089456;28;20066;-59
2021/07/15 05:01:22;;;;;;;20.55;17.67;;;;;;;22.41;69.05;93418.94;5071656;28;20020;-58
2021/07/15 05:03:48;;;;;;;32.83;29.95;;;;;;;22.48;69.23;93415.03;5089785;28;20024;-59
2021/07/15 05:06:14;;;;;;;27.75;18.00;;;;;;;22.46;68.79;93411.38;5089590;28;20024;-56
2021/07/15 05:08:39;;;;;;;18.55;16.77;;;;;;;22.51;68.84;93422.22;5089729;28;20024;-58
2021/07/15 05:11:07;;;;;;;20.80;16.17;;;;;;;22.54;69.54;93415.31;5089842;28;20023;-59
2021/07/15 05:13:33;;;;;;;21.33;17.15;;;;;;;22.59;68.30;93411.41;5089573;28;20019;-59
2021/07/15 05:15:58;;;;;;;18.65;16.73;;;;;;;22.65;68.56;93413.06;5089641;28;20032;-59
2021/07/15 05:18:24;;;;;;;17.88;16.17;;;;;;;22.72;68.37;93412.72;5089842;28;20020;-59
2021/07/15 05:20:49;;;;;;;22.58;16.58;;;;;;;22.69;68.96;93416.06;5089624;28;20028;-59
2021/07/15 05:23:15;;;;;;;20.15;18.15;;;;;;;22.53;68.58;93415.97;5089757;28;20054;-63
2021/07/15 05:25:41;;;;;;;19.80;17.40;;;;;;;22.40;69.38;93417.47;5089009;28;20416;-61
2021/07/15 05:28:06;;;;;;;23.50;17.25;;;;;;;22.37;70.24;93415.19;5089403;28;20032;-59
2021/07/15 05:30:32;;;;;;;19.55;17.85;;;;;;;22.40;70.22;93419.53;5089693;28;20027;-60
2021/07/15 05:32:58;;;;;;;20.08;17.98;;;;;;;22.37;69.94;93413.06;5088521;28;20020;-59
2021/07/15 05:35:24;;;;;;;21.25;19.05;;;;;;;22.16;70.12;93424.69;5088000;28;20180;-60
2021/07/15 05:37:50;;;;;;;20.98;19.13;;;;;;;22.10;71.15;93423.63;5087612;28;20102;-59
2021/07/15 05:40:16;;;;;;;26.25;19.90;;;;;;;22.07;71.16;93422.81;5087558;28;20420;-60
2021/07/15 05:42:41;;;;;;;20.67;18.75;;;;;;;22.02;70.89;93426.03;5088049;28;20060;-60
2021/07/15 05:45:07;;;;;;;21.50;19.42;;;;;;;22.04;71.29;93423.34;5070040;28;20110;-59
2021/07/15 05:47:32;;;;;;;20.60;18.65;;;;;;;22.17;70.73;93420.53;5087963;28;20042;-59
2021/07/15 05:49:58;;;;;;;21.17;19.13;;;;;;;22.37;70.72;93415.88;5088244;28;20023;-59
2021/07/15 05:52:23;;;;;;;21.40;18.63;;;;;;;22.34;70.14;93408.72;5088128;28;20415;-59
2021/07/15 05:54:50;;;;;;;20.77;18.48;;;;;;;22.51;69.80;93430.69;5088428;28;20027;-59
2021/07/15 05:57:16;;;;;;;19.90;17.95;;;;;;;22.57;69.21;93430.97;5088065;28;20071;-59
2021/07/15 05:59:42;;;;;;;22.75;16.77;;;;;;;22.63;69.40;93427.78;5088464;28;20059;-58
2021/07/15 06:02:09;;;;;;;19.63;17.50;;;;;;;22.68;69.65;93423.78;5088797;28;20424;-59
2021/07/15 06:04:34;;;;;;;19.67;17.70;;;;;;;22.72;70.06;93431.72;5092317;28;20020;-59
2021/07/15 06:07:00;;;;;;;18.40;16.48;;;;;;;22.89;68.86;93422.69;5091941;28;20853;-59
2021/07/15 06:09:25;;;;;;;22.42;16.42;;;;;;;22.58;69.12;93381.78;5091565;28;20036;-59
2021/07/15 06:11:51;;;;;;;19.75;17.92;;;;;;;22.97;68.46;93423.06;5091101;28;20030;-59
2021/07/15 06:14:16;;;;;;;18.77;16.98;;;;;;;23.02;68.91;93416.97;5091282;28;20034;-59
2021/07/15 06:16:41;;;;;;;18.10;16.23;;;;;;;23.17;67.61;93421.22;5090834;28;20492;-61
2021/07/15 06:19:07;;;;;;;18.80;16.42;;;;;;;23.22;67.61;93414.38;5090779;28;20565;-57
2021/07/15 06:21:33;;;;;;;17.10;15.63;;;;;;;23.28;67.70;93414.69;5091286;28;20036;-59
2021/07/15 06:23:58;;;;;;;20.45;16.17;;;;;;;23.38;67.15;93420.06;5090743;28;20028;-59
2021/07/15 06:26:24;;;;;;;23.02;20.85;;;;;;;23.45;66.46;93411.28;5091491;28;20016;-58
2021/07/15 06:28:49;;;;;;;20.58;18.60;;;;;;;23.53;66.85;93405.25;5091257;28;20111;-59
2021/07/15 06:31:15;;;;;;;22.25;19.25;;;;;;;23.55;66.88;93405.34;5090884;28;20035;-59
2021/07/15 06:33:40;;;;;;;19.13;17.02;;;;;;;23.71;66.08;93395.56;5090015;28;20054;-59
2021/07/15 06:36:07;;;;;;;20.33;18.15;;;;;;;23.78;65.91;93402.19;5089560;28;20405;-59
2021/07/15 06:38:34;;;;;;;19.42;17.73;;;;;;;23.88;65.80;93400.53;5089768;28;20573;-59
2021/07/15 06:41:01;;;;;;;18.90;17.10;;;;;;;24.00;65.73;93408.78;5089866;28;20051;-59
2021/07/15 06:43:26;;;;;;;23.85;19.23;;;;;;;24.00;64.48;93395.41;5089756;28;20024;-59
2021/07/15 06:45:52;;;;;;;21.25;19.02;;;;;;;24.09;66.11;93390.88;5090066;28;20023;-57
2021/07/15 06:48:18;;;;;;;20.92;18.52;;;;;;;24.19;65.75;93399.75;5090528;28;20111;-57
2021/07/15 06:50:44;;;;;;;19.40;16.80;;;;;;;24.29;64.11;93397.41;5090936;28;20409;-58
2021/07/15 06:53:09;;;;;;;20.52;18.63;;;;;;;24.41;64.38;93386.59;5090844;28;20032;-58
2021/07/15 06:55:35;;;;;;;22.10;17.33;;;;;;;24.51;63.31;93383.50;5088913;28;20020;-58
2021/07/15 06:58:01;;;;;;;20.83;18.30;;;;;;;24.59;63.70;93389.47;5090293;28;20055;-58
2021/07/15 07:00:26;;;;;;;24.45;17.30;;;;;;;24.66;61.77;93391.16;5090643;28;20020;-58
2021/07/15 07:02:52;;;;;;;20.15;16.65;;;;;;;24.67;62.12;93387.69;5090827;28;20446;-57
2021/07/15 07:05:17;;;;;;;18.30;16.50;;;;;;;24.72;62.17;93383.66;5090543;28;20031;-57
2021/07/15 07:07:44;;;;;;;19.92;17.88;;;;;;;24.78;62.59;93381.13;5090766;28;20101;-57
2021/07/15 07:10:11;;;;;;;20.60;17.42;;;;;;;24.83;62.72;93379.19;5090471;28;20112;-57
2021/07/15 07:12:37;;;;;;;18.33;16.42;;;;;;;24.95;62.26;93382.47;5090644;28;20036;-57
2021/07/15 07:15:05;;;;;;;19.38;17.55;;;;;;;25.00;61.90;93386.19;5089950;28;20019;-56
2021/07/15 07:17:31;;;;;;;20.77;15.60;;;;;;;25.10;60.11;93380.97;5091444;28;20032;-57
2021/07/15 07:19:56;;;;;;;18.33;16.65;;;;;;;25.20;62.58;93382.06;5090361;28;20085;-57
2021/07/15 07:22:22;;;;;;;19.38;16.15;;;;;;;25.35;61.94;93380.50;5090157;28;20028;-57
2021/07/15 07:24:47;;;;;;;17.63;15.80;;;;;;;25.53;59.71;93376.28;5088561;28;20073;-57
2021/07/15 07:27:13;;;;;;;17.33;15.73;;;;;;;25.64;58.25;93379.50;5090518;28;20416;-57
2021/07/15 07:29:38;;;;;;;16.40;14.77;;;;;;;25.89;59.98;93373.34;5090114;28;20481;-57
2021/07/15 07:32:04;;;;;;;16.60;14.35;;;;;;;26.08;57.20;93370.53;5090367;28;20028;-57
2021/07/15 07:34:29;;;;;;;15.68;14.32;;;;;;;26.32;57.10;93370.66;5090406;28;20027;-57
2021/07/15 07:36:56;;;;;;;15.75;13.88;;;;;;;26.54;56.26;93371.41;5090243;28;20027;-57
2021/07/15 07:39:22;;;;;;;21.48;17.45;;;;;;;26.80;57.15;93371.59;5090007;28;20103;-57
2021/07/15 07:41:47;;;;;;;16.50;13.55;;;;;;;27.25;54.89;93374.44;5089815;28;20462;-58
2021/07/15 07:44:13;;;;;;;14.07;12.65;;;;;;;27.41;51.05;93368.56;5089914;28;20035;-56
2021/07/15 07:46:38;;;;;;;14.00;12.48;;;;;;;27.75;52.13;93364.63;5090052;28;20019;-56
2021/07/15 07:49:04;;;;;;;19.85;14.57;;;;;;;28.32;53.48;93369.81;5089991;28;20605;-56
2021/07/15 07:51:30;;;;;;;13.90;11.63;;;;;;;28.86;49.91;93366.94;5089665;28;20524;-56
2021/07/15 07:53:56;;;;;;;18.02;11.10;;;;;;;29.47;46.67;93364.16;5094810;28;20027;-56
2021/07/15 07:56:22;;;;;;;14.20;11.80;;;;;;;29.93;47.79;93358.78;5089489;28;20032;-58
2021/07/15 07:58:47;;;;;;;11.70;10.60;;;;;;;30.02;43.74;93371.03;5086733;28;20044;-55
2021/07/15 08:01:13;;;;;;;14.27;11.63;;;;;;;30.20;45.84;93357.16;5089605;28;20023;-56
2021/07/15 08:03:39;;;;;;;12.63;10.93;;;;;;;30.65;44.54;93359.44;5088960;28;20120;-58
2021/07/15 08:06:04;;;;;;;10.98;9.88;;;;;;;31.00;44.31;93352.94;5089834;28;20031;-57
2021/07/15 08:08:30;;;;;;;11.52;10.05;;;;;;;31.40;42.90;93355.72;5071431;28;20073;-55
2021/07/15 08:10:55;;;;;;;12.23;10.10;;;;;;;31.26;41.87;93355.50;5089665;28;20028;-57
2021/07/15 08:13:21;;;;;;;12.77;9.65;;;;;;;30.79;41.94;93356.13;5091589;28;20480;-62
2021/07/15 08:15:46;;;;;;;14.23;10.25;;;;;;;30.68;44.08;93353.13;5108040;28;20563;-56
2021/07/15 08:18:12;;;;;;;14.20;12.25;;;;;;;31.04;43.85;93352.28;5094771;28;20032;-57
2021/07/15 08:20:37;;;;;;;10.73;9.65;;;;;;;31.01;42.18;93348.72;5090247;28;20012;-57
2021/07/15 08:23:05;;;;;;;16.50;9.43;;;;;;;30.94;39.94;93350.00;5075457;28;20066;-56
2021/07/15 08:25:31;;;;;;;11.00;9.90;;;;;;;30.89;39.33;93353.47;5071530;28;20599;-58
2021/07/15 08:27:57;;;;;;;10.68;9.18;;;;;;;30.44;41.04;93354.78;5067982;28;20547;-61
2021/07/15 08:30:23;;;;;;;12.80;9.95;;;;;;;30.38;42.33;93354.69;5067920;28;20055;-56
2021/07/15 08:32:48;;;;;;;10.85;9.73;;;;;;;30.49;41.56;93342.78;5067699;28;20041;-57
2021/07/15 08:35:14;;;;;;;10.93;10.00;;;;;;;30.43;41.43;93330.56;5067767;28;20030;-58
2021/07/15 08:37:39;;;;;;;15.57;9.38;;;;;;;30.97;41.64;93342.91;5066092;28;20089;-64
2021/07/15 08:40:07;;;;;;;10.93;9.95;;;;;;;31.07;40.47;93345.22;5068009;28;20111;-64
2021/07/15 08:42:35;;;;;;;15.27;10.07;;;;;;;30.70;40.21;93344.59;5067954;28;20035;-58
2021/07/15 08:45:03;;;;;;;11.48;10.15;;;;;;;30.90;41.33;93341.41;5072561;28;20027;-57
2021/07/15 08:47:28;;;;;;;11.32;9.63;;;;;;;30.79;41.63;93334.06;5098630;28;20396;-58
2021/07/15 08:49:55;;;;;;;33.78;11.02;;;;;;;30.19;42.49;93335.78;5089399;28;20035;-58
2021/07/15 08:52:20;;;;;;;12.88;9.50;;;;;;;30.88;42.09;93334.94;5108665;28;20031;-58
2021/07/15 08:55:16;;;;;;;13.40;9.68;;;;;;;31.01;40.72;93337.31;5108501;28;20104;-61
2021/07/15 08:57:42;;;;;;;10.05;8.77;;;;;;;30.84;41.14;93335.53;5107697;28;20135;-58
2021/07/15 09:00:10;;;;;;;10.30;9.25;;;;;;;30.90;41.29;93332.84;5107984;28;20131;-59
2021/07/15 09:02:35;;;;;;;9.97;8.73;;;;;;;31.21;40.52;93325.47;5108257;28;20027;-59
2021/07/15 09:05:06;;;;;;;15.73;10.65;;;;;;;31.19;40.77;93323.31;5091764;28;20032;-58
2021/07/15 09:07:32;;;;;;;10.63;9.30;;;;;;;31.27;40.51;93331.97;5091132;28;20066;-61
2021/07/15 09:09:58;;;;;;;11.13;9.55;;;;;;;31.65;40.22;93336.81;5093347;28;20055;-58
2021/07/15 09:12:23;;;;;;;13.85;9.05;;;;;;;32.27;38.61;93329.06;5069303;28;20028;-61
2021/07/15 09:14:51;;;;;;;11.52;8.93;;;;;;;32.49;38.26;93326.47;5068428;28;20029;-58
2021/07/15 09:17:31;;;;;;;16.80;9.82;;;;;;;32.61;36.42;93331.59;5072689;28;20024;-61
2021/07/15 09:19:58;;;;;;;12.23;9.05;;;;;;;33.10;35.87;93321.31;5087449;28;20404;-61
2021/07/15 09:22:24;;;;;;;11.70;9.50;;;;;;;33.51;37.63;93315.19;5087391;28;20428;-60
2021/07/15 09:24:51;;;;;;;10.95;8.63;;;;;;;33.38;35.98;93313.66;5086653;28;20024;-60
2021/07/15 09:27:23;;;;;;;9.95;8.73;;;;;;;33.17;36.75;93322.81;5087230;28;20115;-60
2021/07/15 09:30:08;;;;;;;10.13;8.40;;;;;;;33.50;35.57;93315.88;5087239;28;20025;-62
2021/07/15 09:32:33;;;;;;;9.23;8.40;;;;;;;34.02;35.86;93309.75;5087086;28;20548;-58
2021/07/15 09:35:06;;;;;;;12.77;9.10;;;;;;;34.14;34.01;93315.53;5087229;28;20097;-62
2021/07/15 09:37:36;;;;;;;13.55;9.05;;;;;;;34.74;32.80;93312.13;5086558;28;20040;-62
2021/07/15 09:40:03;;;;;;;10.40;8.15;;;;;;;34.95;34.02;93304.97;5108155;28;20031;-62
2021/07/15 09:42:29;;;;;;;11.15;8.30;;;;;;;35.24;33.03;93302.84;5111575;28;20023;-61
2021/07/15 09:44:54;;;;;;;9.55;8.50;;;;;;;34.93;34.76;93308.53;5112064;28;20035;-63
2021/07/15 09:47:38;;;;;;;9.35;7.43;;;;;;;34.40;32.86;93307.00;5111927;28;20019;-62
2021/07/15 09:50:25;;;;;;;8.90;8.10;;;;;;;34.01;33.54;93302.56;5111925;28;20063;-63
2021/07/15 09:52:51;;;;;;;10.95;8.48;;;;;;;33.58;34.97;93304.50;5111462;28;20027;-58
2021/07/15 09:55:24;;;;;;;9.48;8.10;;;;;;;33.80;34.31;93303.91;5111204;28;20411;-60
2021/07/15 09:58:10;;;;;;;13.80;8.20;;;;;;;34.16;33.77;93299.06;5110747;28;20060;-59
2021/07/15 10:00:45;;;;;;;9.68;7.32;;;;;;;34.32;34.39;93293.38;5111732;28;20400;-59
2021/07/15 10:03:13;;;;;;;9.32;7.82;;;;;;;34.43;32.58;93285.53;5111585;28;20031;-61
2021/07/15 10:05:49;;;;;;;9.23;7.77;;;;;;;34.15;32.95;93294.78;5111625;28;20032;-59
2021/07/15 10:08:24;;;;;;;12.20;7.15;;;;;;;34.31;31.81;93294.06;5111061;28;20036;-59
2021/07/15 10:10:50;;;;;;;8.88;7.50;;;;;;;34.48;31.88;93291.97;5093950;28;20504;-58
2021/07/15 10:13:21;;;;;;;9.48;7.18;;;;;;;35.07;30.94;93299.25;5073208;28;20020;-59
2021/07/15 10:15:48;;;;;;;10.05;7.55;;;;;;;35.40;30.48;93288.47;5091097;28;20081;-60
2021/07/15 10:18:14;;;;;;;12.35;8.50;;;;;;;35.74;31.95;93292.00;5091079;28;20059;-61
2021/07/15 10:20:56;;;;;;;12.07;7.63;;;;;;;36.54;30.96;93287.38;5090966;28;20428;-60
2021/07/15 10:23:42;;;;;;;8.52;7.18;;;;;;;36.98;29.44;93295.75;5090259;28;20043;-59
2021/07/15 10:26:10;;;;;;;10.15;7.10;;;;;;;36.91;28.33;93274.19;5070873;28;20459;-59
2021/07/15 10:28:36;;;;;;;8.43;7.60;;;;;;;37.28;27.81;93286.13;5069893;28;20032;-58
2021/07/15 10:31:04;;;;;;;10.25;7.25;;;;;;;36.77;28.30;93282.91;5070155;28;20028;-58
2021/07/15 10:33:30;;;;;;;12.82;8.73;;;;;;;37.41;28.26;93278.84;5069908;28;20024;-58
2021/07/15 10:36:00;;;;;;;7.10;6.40;;;;;;;37.68;25.45;93273.53;5069841;28;20028;-60
2021/07/15 10:38:30;;;;;;;7.72;7.03;;;;;;;38.15;28.12;93265.06;5068731;28;20036;-60
2021/07/15 10:40:59;;;;;;;8.02;6.85;;;;;;;37.90;26.72;93276.19;5070265;28;20033;-58
2021/07/15 10:43:25;;;;;;;7.03;6.38;;;;;;;37.57;26.64;93275.09;5052713;28;20458;-58
2021/07/15 10:45:53;;;;;;;8.75;7.32;;;;;;;37.58;28.31;93262.09;5069770;28;20028;-59
2021/07/15 10:48:19;;;;;;;10.50;6.82;;;;;;;37.40;26.74;93271.66;5069581;28;20036;-64
2021/07/15 10:50:44;;;;;;;11.20;7.20;;;;;;;36.40;26.80;93256.53;5069531;28;20773;-63
2021/07/15 10:53:12;;;;;;;11.13;7.30;;;;;;;36.37;26.46;93277.38;5064812;28;20032;-57
2021/07/15 10:55:38;;;;;;;127.63;13.60;;;;;;;36.27;29.43;93269.53;5089569;28;20520;-57
2021/07/15 10:58:04;;;;;;;8.60;6.65;;;;;;;36.42;29.11;93264.41;5089534;28;20056;-57
2021/07/15 11:00:30;;;;;;;7.82;7.03;;;;;;;36.84;27.29;93269.91;5089898;28;20507;-58
2021/07/15 11:03:20;;;;;;;6.75;6.15;;;;;;;37.39;25.26;93273.09;5089540;28;20032;-59
2021/07/15 11:05:57;;;;;;;8.07;6.72;;;;;;;36.74;25.51;93266.38;5071611;28;20032;-58
2021/07/15 11:08:44;;;;;;;9.18;6.63;;;;;;;36.06;27.17;93270.38;5090405;28;20028;-58
2021/07/15 11:11:11;;;;;;;10.80;7.03;;;;;;;36.84;30.48;93269.22;5089999;28;20416;-58
2021/07/15 11:13:36;;;;;;;7.55;6.80;;;;;;;35.95;26.34;93263.94;5089160;28;20036;-57
2021/07/15 11:16:07;;;;;;;7.82;7.13;;;;;;;36.07;26.13;93269.63;5089280;28;20035;-59
2021/07/15 11:18:40;;;;;;;8.40;6.50;;;;;;;36.20;25.85;93253.03;5089267;28;20024;-58
2021/07/15 11:21:26;;;;;;;9.18;6.95;;;;;;;36.74;26.15;93255.59;5069461;28;20086;-59
2021/07/15 11:24:20;;;;;;;9.35;7.35;;;;;;;35.68;27.54;93251.09;5064730;28;20040;-58
2021/07/15 11:26:45;;;;;;;8.75;7.63;;;;;;;36.10;30.71;93258.84;5087817;28;20100;-57
2021/07/15 11:29:13;;;;;;;9.60;6.85;;;;;;;36.35;27.62;93243.63;5095150;28;20514;-57
2021/07/15 11:31:43;;;;;;;14.40;8.23;;;;;;;35.89;26.53;93243.13;5097883;28;20032;-59
2021/07/15 11:34:10;;;;;;;10.05;7.28;;;;;;;35.36;28.17;93234.63;5097086;28;20034;-57
2021/07/15 11:36:36;;;;;;;9.73;7.50;;;;;;;35.78;28.29;93240.25;5095883;28;20024;-58
2021/07/15 11:39:08;;;;;;;8.27;7.47;;;;;;;34.64;29.08;93229.66;5100885;28;20080;-58
2021/07/15 11:41:47;;;;;;;8.15;7.43;;;;;;;34.46;29.96;93238.22;5095130;28;20016;-57
2021/07/15 11:44:14;;;;;;;7.95;7.25;;;;;;;34.37;30.50;93233.91;5101228;28;20041;-57
2021/07/15 11:46:40;;;;;;;8.90;8.18;;;;;;;34.49;32.43;93230.31;5099306;28;20027;-57
2021/07/15 11:49:26;;;;;;;12.50;8.18;;;;;;;34.48;30.24;93226.03;5090872;28;20036;-57
2021/07/15 11:51:52;;;;;;;10.65;8.38;;;;;;;34.26;30.14;93223.88;5093509;28;20114;-57
2021/07/15 11:54:29;;;;;;;11.05;8.15;;;;;;;34.36;30.37;93223.88;5104401;28;20501;-57
2021/07/15 11:57:13;;;;;;;9.63;8.73;;;;;;;34.27;31.00;93217.41;5101845;28;20044;-57
2021/07/15 11:59:43;;;;;;;10.68;7.88;;;;;;;34.41;30.21;93216.00;5087270;28;20413;-58
2021/07/15 12:02:29;;;;;;;8.68;7.82;;;;;;;34.30;29.80;93218.13;5090411;28;20036;-63
2021/07/15 12:05:39;;;;;;;9.82;7.93;;;;;;;34.13;31.51;93225.97;5103015;28;20036;-57
2021/07/15 12:08:13;;;;;;;9.65;8.60;;;;;;;33.93;32.18;93216.59;5097682;28;20048;-58
2021/07/15 12:10:43;;;;;;;11.48;8.50;;;;;;;34.11;31.13;93214.50;5108679;28;20664;-63
2021/07/15 12:13:11;;;;;;;13.07;8.18;;;;;;;33.95;31.36;93203.00;5109337;28;20036;-57
2021/07/15 12:15:38;;;;;;;10.50;8.73;;;;;;;33.64;31.10;93212.91;5096019;28;20036;-60
2021/07/15 12:18:14;;;;;;;10.43;8.25;;;;;;;33.47;30.86;93205.63;5088363;28;20444;-57
2021/07/15 12:20:51;;;;;;;11.27;8.40;;;;;;;33.56;30.70;93212.88;5088235;28;20024;-59
2021/07/15 12:23:32;;;;;;;14.32;8.82;;;;;;;33.44;31.61;93204.91;5087820;28;20043;-58
2021/07/15 12:25:58;;;;;;;10.25;8.25;;;;;;;33.56;31.77;93207.16;5082552;28;20028;-58
2021/07/15 12:28:26;;;;;;;10.82;9.05;;;;;;;33.44;33.12;93209.94;5087650;28;20458;-57
2021/07/15 12:30:57;;;;;;;;;;;;;;;33.42;31.19;93204.19;5088254;28;20034;-57
2021/07/15 12:33:35;;;;;;;11.65;8.02;;;;;;;33.12;32.29;93204.75;5087836;28;19912;-56
2021/07/15 12:36:08;;;;;;;11.05;8.40;;;;;;;33.20;31.48;93204.09;5087715;28;20016;-57
2021/07/15 12:38:33;;;;;;;13.48;8.82;;;;;;;33.06;31.66;93210.44;5095546;28;20431;-61
2021/07/15 12:41:20;;;;;;;11.48;9.05;;;;;;;32.95;31.23;93208.91;5088293;28;20091;-57
2021/07/15 12:43:57;;;;;;;10.57;9.15;;;;;;;32.72;31.66;93204.47;5086832;28;20666;-60
2021/07/15 12:46:35;;;;;;;11.35;8.70;;;;;;;32.56;32.94;93198.59;5087389;28;20534;-58
2021/07/15 12:49:03;;;;;;;12.27;8.90;;;;;;;32.49;33.09;93192.13;5087173;28;20359;-58
2021/07/15 12:51:43;;;;;;;75.43;13.05;;;;;;;32.59;35.01;93200.06;5087115;28;20020;-57
2021/07/15 12:54:17;;;;;;;8.73;7.93;;;;;;;32.62;32.62;93201.50;5085327;28;20059;-58
2021/07/15 12:56:43;;;;;;;13.38;8.40;;;;;;;32.62;32.43;93198.66;5087758;28;20028;-57
2021/07/15 12:59:13;;;;;;;12.05;8.82;;;;;;;32.76;33.02;93196.63;5087258;28;20565;-58
2021/07/15 13:01:42;;;;;;;10.52;9.45;;;;;;;32.62;33.32;93190.06;5087859;28;20100;-58
2021/07/15 13:04:19;;;;;;;12.38;9.45;;;;;;;32.46;32.89;93196.38;5087672;28;20039;-62
2021/07/15 13:06:55;;;;;;;9.07;8.02;;;;;;;32.40;33.13;93195.59;5087931;28;20084;-58
2021/07/15 13:09:35;;;;;;;9.63;8.65;;;;;;;32.46;34.63;93187.06;5087674;28;20488;-59
2021/07/15 13:14:51;;;;;;;11.88;9.00;;;;;;;32.43;33.35;93185.63;5087263;28;20035;-57
2021/07/15 13:17:21;;;;;;;10.63;8.70;;;;;;;32.36;33.27;93184.84;5087152;28;20067;-58
2021/07/15 13:19:49;;;;;;;14.45;10.07;;;;;;;32.26;33.46;93186.91;5069060;28;20504;-58
2021/07/15 13:22:17;;;;;;;10.02;8.55;;;;;;;32.07;34.21;93183.16;5087130;28;20055;-58
2021/07/15 13:24:45;;;;;;;11.45;9.25;;;;;;;32.12;34.65;93181.75;5086739;28;20516;-57
2021/07/15 13:27:18;;;;;;;10.75;8.73;;;;;;;31.94;33.63;93178.72;5087310;28;20746;-58
2021/07/15 13:29:46;;;;;;;13.75;9.48;;;;;;;31.97;34.41;93171.63;5087719;28;20036;-57
2021/07/15 13:32:23;;;;;;;12.73;9.90;;;;;;;31.98;36.04;93176.66;5088061;28;20599;-56
2021/07/15 13:34:50;;;;;;;18.90;9.73;;;;;;;31.86;34.72;93173.63;5069461;28;20119;-57
2021/07/15 13:37:16;;;;;;;11.73;9.05;;;;;;;31.97;35.09;93171.63;5087319;28;20024;-57
2021/07/15 13:39:47;;;;;;;14.40;9.02;;;;;;;31.93;35.80;93178.00;5068751;28;20062;-58
2021/07/15 13:42:18;;;;;;;12.00;9.40;;;;;;;31.72;35.11;93164.22;5069359;28;20483;-57
2021/07/15 13:44:54;;;;;;;10.77;9.65;;;;;;;31.89;34.39;93162.97;5087217;28;20032;-59
2021/07/15 13:47:31;;;;;;;10.75;9.38;;;;;;;31.85;34.99;93171.50;5087169;28;20059;-56
2021/07/15 13:50:26;;;;;;;14.02;10.45;;;;;;;31.74;34.78;93170.66;5087102;28;20032;-60
2021/07/15 13:52:58;;;;;;;14.88;9.85;;;;;;;31.82;35.56;93172.88;5078649;28;20072;-56
2021/07/15 13:55:25;;;;;;;10.52;9.35;;;;;;;31.78;34.72;93172.84;5086743;28;20512;-57
2021/07/15 13:57:53;;;;;;;9.85;8.85;;;;;;;31.79;35.81;93168.56;5087157;28;20048;-56
2021/07/15 14:00:20;;;;;;;;;;;;;;;31.59;35.67;93165.50;5088058;28;20054;-61
2021/07/15 14:02:50;;;;;;;12.55;9.15;;;;;;;31.47;36.39;93177.47;5087551;28;19972;-55
2021/07/15 14:05:28;;;;;;;12.40;8.88;;;;;;;31.53;35.96;93171.13;5087103;28;20035;-56
2021/07/15 14:07:55;;;;;;;9.88;8.98;;;;;;;31.62;36.28;93179.09;5087077;28;20060;-55
2021/07/15 14:10:21;;;;;;;10.77;8.95;;;;;;;31.60;35.50;93169.81;5068955;28;20056;-57
2021/07/15 14:12:47;;;;;;;9.80;8.80;;;;;;;31.57;35.53;93163.34;5087175;28;20084;-58
2021/07/15 14:15:22;;;;;;;9.70;8.80;;;;;;;31.45;34.59;93162.50;5087091;28;20413;-57
2021/07/15 14:18:07;;;;;;;13.27;8.90;;;;;;;31.18;35.17;93155.72;5086778;28;20518;-56
2021/07/15 14:20:35;;;;;;;11.18;9.07;;;;;;;31.19;35.96;93148.59;5086647;28;20031;-57
2021/07/15 14:23:02;;;;;;;8.82;8.02;;;;;;;31.35;35.85;93149.50;5087271;28;20066;-58